Time;durP1;ratioP1;P1;durP2;ratioP2;P2;SDS_P1;SDS_P2;PMS_P1;PMS_P2;Temp;Humidity;BMP_temperature;BMP_pressure;BME280_temperature;BME280_humidity;BME280_pressure;Samples;Min_cycle;Max_cycle;Signal;HPM_P1;HPM_P2
2023/07/31 00:02:13;;;;;;;3.57;1.50;;;14.70;99.90;;;;;;5048298;28;20482;-59
2023/07/31 00:04:39;;;;;;;3.43;1.50;;;14.70;99.90;;;;;;5052848;28;20488;-58
2023/07/31 00:07:06;;;;;;;2.40;1.30;;;14.60;99.90;;;;;;5041218;28;20567;-58
2023/07/31 00:09:33;;;;;;;6.43;1.90;;;14.60;99.90;;;;;;5046505;28;20545;-58
2023/07/31 00:12:01;;;;;;;5.40;1.70;;;14.50;99.90;;;;;;5049371;28;20545;-59
2023/07/31 00:14:27;;;;;;;6.60;1.90;;;14.50;99.90;;;;;;5051526;28;21019;-59
2023/07/31 00:16:54;;;;;;;4.73;1.20;;;14.50;99.90;;;;;;5054381;28;20513;-58
2023/07/31 00:19:20;;;;;;;6.20;1.60;;;14.40;99.90;;;;;;5041676;28;20549;-58
2023/07/31 00:21:47;;;;;;;5.30;1.60;;;14.50;99.90;;;;;;5045850;28;20540;-58
2023/07/31 00:24:13;;;;;;;3.70;1.40;;;14.50;99.90;;;;;;5045578;28;20593;-58
2023/07/31 00:26:40;;;;;;;3.23;1.50;;;14.40;99.90;;;;;;5051186;28;21087;-58
2023/07/31 00:29:08;;;;;;;5.17;1.50;;;14.40;99.90;;;;;;5055697;28;20647;-58
2023/07/31 00:31:34;;;;;;;5.10;2.30;;;14.40;99.90;;;;;;5039071;28;20494;-58
2023/07/31 00:34:01;;;;;;;1.57;1.30;;;14.50;99.90;;;;;;5047989;28;20541;-58
2023/07/31 00:36:27;;;;;;;2.23;1.30;;;14.40;99.90;;;;;;5048098;28;20576;-59
2023/07/31 00:38:54;;;;;;;4.70;1.67;;;14.40;99.90;;;;;;5044583;28;20574;-58
2023/07/31 00:41:20;;;;;;;6.07;1.60;;;14.40;99.90;;;;;;5037654;28;22472;-58
2023/07/31 00:43:47;;;;;;;4.23;1.47;;;14.40;99.90;;;;;;5059030;28;20516;-58
2023/07/31 00:46:15;;;;;;;2.70;1.53;;;14.40;99.90;;;;;;5056606;28;20569;-58
2023/07/31 00:48:41;;;;;;;3.67;1.83;;;14.40;99.90;;;;;;5052199;28;20549;-57
2023/07/31 00:51:09;;;;;;;3.27;1.23;;;14.40;99.90;;;;;;5054850;28;20901;-59
2023/07/31 00:53:36;;;;;;;2.90;1.67;;;14.40;99.90;;;;;;5047387;28;20458;-59
2023/07/31 00:56:03;;;;;;;4.40;1.80;;;14.40;99.90;;;;;;5043779;28;20581;-58
2023/07/31 00:58:29;;;;;;;8.40;1.77;;;14.50;99.90;;;;;;5041628;28;20478;-58
2023/07/31 01:00:56;;;;;;;5.03;1.83;;;14.40;99.90;;;;;;5048779;28;20548;-58
2023/07/31 01:03:24;;;;;;;3.80;1.60;;;14.40;99.90;;;;;;5045947;28;20593;-59
2023/07/31 01:06:03;;;;;;;5.43;1.50;;;14.50;99.90;;;;;;5045017;28;21087;-59
2023/07/31 01:08:35;;;;;;;4.30;1.90;;;14.40;99.90;;;;;;5041330;28;20581;-59
2023/07/31 01:11:11;;;;;;;3.20;1.63;;;14.50;99.90;;;;;;5051296;28;20829;-58
2023/07/31 01:13:38;;;;;;;4.10;1.60;;;14.50;99.90;;;;;;5051354;28;20540;-59
2023/07/31 01:16:04;;;;;;;5.10;1.27;;;14.50;99.90;;;;;;5048208;28;20545;-59
2023/07/31 01:18:32;;;;;;;7.37;1.50;;;14.50;99.90;;;;;;5053830;28;20496;-59
2023/07/31 01:21:12;;;;;;;8.23;1.97;;;14.50;99.90;;;;;;5064217;28;20465;-59
2023/07/31 01:24:03;;;;;;;4.10;1.70;;;14.50;99.90;;;;;;5047015;28;20565;-59
2023/07/31 01:26:35;;;;;;;2.37;1.20;;;14.60;99.90;;;;;;5046188;28;20539;-59
2023/07/31 01:29:08;;;;;;;5.40;1.87;;;14.60;99.90;;;;;;5046560;28;20493;-58
2023/07/31 01:31:36;;;;;;;7.40;1.60;;;14.60;99.90;;;;;;5051544;28;20553;-59
2023/07/31 01:34:03;;;;;;;5.80;1.30;;;14.60;99.90;;;;;;5047373;28;20545;-59
2023/07/31 01:36:31;;;;;;;2.10;1.20;;;14.60;99.90;;;;;;5049290;28;20561;-59
2023/07/31 01:39:00;;;;;;;4.93;1.67;;;14.60;99.90;;;;;;5040894;28;20494;-59
2023/07/31 01:41:26;;;;;;;5.03;1.50;;;14.60;99.90;;;;;;5044571;28;20496;-59
2023/07/31 01:43:54;;;;;;;1.63;1.37;;;14.70;99.90;;;;;;5055792;28;20572;-58
2023/07/31 01:46:21;;;;;;;2.23;1.33;;;14.60;99.90;;;;;;5053976;28;20572;-58
2023/07/31 01:48:47;;;;;;;3.20;1.50;;;14.60;99.90;;;;;;5055906;28;20544;-59
2023/07/31 01:51:14;;;;;;;3.17;1.50;;;14.60;99.90;;;;;;5051950;28;21019;-59
2023/07/31 01:53:40;;;;;;;3.87;1.93;;;14.60;99.90;;;;;;5048870;28;20895;-59
2023/07/31 01:56:07;;;;;;;2.40;1.07;;;14.70;99.90;;;;;;5046079;28;20540;-59
2023/07/31 01:58:33;;;;;;;5.80;1.60;;;14.70;99.90;;;;;;5051156;28;21032;-58
2023/07/31 02:01:01;;;;;;;5.60;1.70;;;14.70;99.90;;;;;;5051155;28;20493;-59
2023/07/31 02:03:28;;;;;;;4.50;1.70;;;14.70;99.90;;;;;;5048323;28;20525;-59
2023/07/31 02:05:56;;;;;;;4.43;1.63;;;14.70;99.90;;;;;;5045770;28;20653;-58
2023/07/31 02:08:23;;;;;;;4.20;1.77;;;14.70;99.90;;;;;;5050319;28;20454;-58
2023/07/31 02:10:49;;;;;;;3.37;1.50;;;14.70;99.90;;;;;;5045839;28;20521;-58
2023/07/31 02:13:16;;;;;;;3.87;1.93;;;14.70;99.90;;;;;;5051964;28;20497;-58
2023/07/31 02:15:42;;;;;;;5.10;2.23;;;14.70;99.90;;;;;;5054702;28;20890;-58
2023/07/31 02:18:10;;;;;;;6.23;2.13;;;14.70;99.90;;;;;;5046835;28;20554;-59
2023/07/31 02:20:37;;;;;;;6.53;2.70;;;14.70;99.90;;;;;;5045422;28;20613;-59
2023/07/31 02:23:03;;;;;;;3.70;1.80;;;14.70;99.90;;;;;;5046411;28;20485;-58
2023/07/31 02:25:30;;;;;;;6.70;2.17;;;14.70;99.90;;;;;;5042486;28;20485;-59
2023/07/31 02:27:56;;;;;;;8.80;2.30;;;14.70;99.90;;;;;;5047841;28;20470;-59
2023/07/31 02:30:23;;;;;;;5.70;1.77;;;14.70;99.90;;;;;;5042625;28;20911;-60
2023/07/31 02:32:49;;;;;;;3.60;2.30;;;14.70;99.90;;;;;;5046345;28;20470;-58
2023/07/31 02:35:18;;;;;;;6.50;2.40;;;14.70;99.90;;;;;;5049028;28;21003;-58
2023/07/31 02:37:45;;;;;;;6.17;2.27;;;14.70;99.90;;;;;;5050309;28;20564;-58
2023/07/31 02:40:12;;;;;;;4.80;2.23;;;14.70;99.90;;;;;;5040638;28;20493;-58
2023/07/31 02:42:38;;;;;;;5.70;2.77;;;14.70;99.90;;;;;;5047717;28;20534;-58
2023/07/31 02:45:06;;;;;;;6.17;2.37;;;14.70;99.90;;;;;;5053195;28;20609;-59
2023/07/31 02:47:33;;;;;;;5.13;2.10;;;14.70;99.90;;;;;;5053318;22;20581;-52
2023/07/31 02:49:59;;;;;;;4.67;2.43;;;14.70;99.90;;;;;;5025105;28;20566;-52
2023/07/31 02:52:27;;;;;;;4.30;2.00;;;14.60;99.80;;;;;;5029270;28;20477;-51
2023/07/31 02:54:54;;;;;;;6.47;2.57;;;14.70;99.30;;;;;;5027222;28;20553;-52
2023/07/31 02:57:21;;;;;;;3.73;2.23;;;14.70;99.10;;;;;;5016871;28;20575;-51
2023/07/31 02:59:47;;;;;;;4.43;1.80;;;14.60;98.60;;;;;;5006598;28;20480;-52
2023/07/31 03:02:14;;;;;;;6.80;2.33;;;14.70;98.60;;;;;;5003131;28;20542;-52
2023/07/31 03:04:41;;;;;;;5.80;2.73;;;14.60;98.00;;;;;;5006535;28;20483;-51
2023/07/31 03:07:07;;;;;;;6.80;2.63;;;14.60;98.00;;;;;;5008145;28;21100;-51
2023/07/31 03:09:35;;;;;;;3.83;2.37;;;14.70;98.00;;;;;;5009704;28;20492;-51
2023/07/31 03:12:03;;;;;;;2.43;2.00;;;14.70;97.80;;;;;;5007768;28;20566;-52
2023/07/31 03:14:29;;;;;;;4.90;2.53;;;14.70;97.60;;;;;;5004756;28;20536;-52
2023/07/31 03:16:56;;;;;;;6.33;2.50;;;14.70;97.30;;;;;;5010914;28;21062;-51
2023/07/31 03:19:23;;;;;;;4.80;2.40;;;14.70;97.20;;;;;;5006734;28;20495;-52
2023/07/31 03:21:49;;;;;;;5.00;2.90;;;14.70;96.90;;;;;;5006587;28;20574;-52
2023/07/31 03:24:16;;;;;;;5.77;2.43;;;14.70;97.30;;;;;;5006045;28;20915;-52
2023/07/31 03:26:43;;;;;;;5.50;2.43;;;14.70;96.90;;;;;;5006837;28;21132;-52
2023/07/31 03:29:10;;;;;;;4.20;2.33;;;14.70;96.90;;;;;;5007507;28;21523;-51
2023/07/31 03:31:36;;;;;;;7.93;3.20;;;14.70;97.40;;;;;;5005216;28;20543;-52
2023/07/31 03:34:03;;;;;;;3.80;2.03;;;14.70;97.80;;;;;;5001350;28;20464;-52
2023/07/31 03:36:30;;;;;;;3.60;2.20;;;14.70;97.10;;;;;;5009949;28;20585;-51
2023/07/31 03:38:56;;;;;;;5.00;2.30;;;14.60;97.20;;;;;;5006133;28;20594;-52
2023/07/31 03:41:23;;;;;;;3.83;2.03;;;14.60;97.00;;;;;;5006102;28;20502;-51
2023/07/31 03:43:52;;;;;;;4.00;1.77;;;14.60;96.90;;;;;;5003514;28;20935;-52
2023/07/31 03:46:19;;;;;;;5.57;1.70;;;14.60;96.40;;;;;;5006149;28;20467;-51
2023/07/31 03:48:45;;;;;;;7.90;1.90;;;14.60;96.70;;;;;;5003741;28;20913;-52
2023/07/31 03:51:12;;;;;;;4.60;1.97;;;14.60;96.80;;;;;;5005545;28;20546;-52
2023/07/31 03:53:38;;;;;;;3.33;2.17;;;14.60;96.60;;;;;;4998185;28;20536;-51
2023/07/31 03:56:05;;;;;;;7.43;2.17;;;14.60;96.40;;;;;;5006412;28;20918;-51
2023/07/31 03:58:32;;;;;;;5.33;2.03;;;14.60;96.30;;;;;;5009808;28;20511;-51
2023/07/31 04:01:00;;;;;;;5.27;2.57;;;14.60;96.10;;;;;;5007047;28;20463;-51
2023/07/31 04:03:26;;;;;;;3.33;1.70;;;14.60;95.90;;;;;;5005933;28;20551;-51
2023/07/31 04:05:55;;;;;;;5.27;2.30;;;14.70;95.40;;;;;;4999985;28;20616;-52
2023/07/31 04:08:22;;;;;;;13.37;2.77;;;14.60;95.10;;;;;;5009970;28;20495;-53
2023/07/31 04:10:49;;;;;;;4.67;2.83;;;14.70;95.00;;;;;;5009293;28;20555;-52
2023/07/31 04:13:15;;;;;;;9.23;4.00;;;14.70;94.10;;;;;;5007053;28;20991;-52
2023/07/31 04:15:42;;;;;;;4.87;2.40;;;14.70;94.40;;;;;;5008869;28;20467;-52
2023/07/31 04:18:10;;;;;;;5.93;2.67;;;14.70;94.10;;;;;;5002237;28;20492;-52
2023/07/31 04:20:37;;;;;;;4.17;2.20;;;14.80;94.20;;;;;;4996681;28;20575;-52
2023/07/31 04:23:03;;;;;;;3.53;2.60;;;14.80;93.80;;;;;;5006328;28;21011;-53
2023/07/31 04:25:31;;;;;;;14.40;2.93;;;14.80;93.40;;;;;;4998712;28;20587;-51
2023/07/31 04:27:58;;;;;;;6.57;2.40;;;14.80;93.20;;;;;;5009583;28;20479;-51
2023/07/31 04:30:25;;;;;;;5.73;2.40;;;14.80;92.80;;;;;;5009068;28;20522;-52
2023/07/31 04:32:51;;;;;;;4.30;2.20;;;14.80;92.50;;;;;;5009358;28;20555;-52
2023/07/31 04:35:19;;;;;;;4.93;2.53;;;14.90;92.10;;;;;;5008229;28;20514;-52
2023/07/31 04:37:48;;;;;;;4.33;3.27;;;14.90;91.80;;;;;;4998896;28;20571;-52
2023/07/31 04:40:15;;;;;;;3.10;2.17;;;14.90;91.30;;;;;;5008099;28;20459;-51
2023/07/31 04:42:41;;;;;;;4.63;3.03;;;14.90;91.30;;;;;;5009966;28;20518;-52
2023/07/31 04:45:10;;;;;;;5.13;2.83;;;14.90;91.10;;;;;;5006703;28;20926;-52
2023/07/31 04:47:36;;;;;;;7.83;3.07;;;14.90;91.40;;;;;;5005049;28;20497;-52
2023/07/31 04:50:03;;;;;;;8.83;2.53;;;15.00;91.30;;;;;;5008357;28;20559;-52
2023/07/31 04:52:31;;;;;;;3.80;2.13;;;14.90;91.20;;;;;;5008924;28;20551;-51
2023/07/31 04:54:57;;;;;;;7.07;3.10;;;14.90;91.30;;;;;;5004801;28;20542;-52
2023/07/31 04:57:24;;;;;;;7.67;2.90;;;14.90;91.10;;;;;;5000457;28;20523;-52
2023/07/31 04:59:50;;;;;;;3.80;2.80;;;15.00;90.90;;;;;;5004474;28;21042;-53
2023/07/31 05:02:17;;;;;;;7.10;2.87;;;15.00;90.80;;;;;;5006277;28;20929;-52
2023/07/31 05:04:44;;;;;;;5.03;2.90;;;15.00;90.80;;;;;;5004293;28;20483;-52
2023/07/31 05:07:10;;;;;;;12.30;3.13;;;15.00;90.60;;;;;;5007333;28;20522;-52
2023/07/31 05:09:39;;;;;;;7.93;3.33;;;15.10;90.50;;;;;;5005648;28;20495;-52
2023/07/31 05:12:06;;;;;;;6.93;2.77;;;15.00;90.50;;;;;;5001831;28;20471;-51
2023/07/31 05:14:33;;;;;;;10.43;3.03;;;15.00;90.50;;;;;;5004752;28;21004;-52
2023/07/31 05:16:59;;;;;;;6.77;3.00;;;15.10;90.30;;;;;;5005230;28;20502;-52
2023/07/31 05:19:26;;;;;;;3.80;2.43;;;15.10;90.40;;;;;;4999234;28;20602;-52
2023/07/31 05:21:52;;;;;;;10.00;3.50;;;15.10;90.50;;;;;;5001480;28;21076;-53
2023/07/31 05:24:19;;;;;;;5.37;3.10;;;15.10;90.60;;;;;;5005249;28;20519;-52
2023/07/31 05:26:47;;;;;;;15.63;3.47;;;15.10;90.20;;;;;;5009134;28;20503;-52
2023/07/31 05:29:13;;;;;;;4.30;2.97;;;15.10;90.00;;;;;;5001720;28;20491;-51
2023/07/31 05:31:40;;;;;;;10.67;2.90;;;15.20;89.60;;;;;;5007484;28;21056;-52
2023/07/31 05:34:06;;;;;;;5.13;3.00;;;15.20;89.60;;;;;;5007698;28;20498;-53
2023/07/31 05:36:33;;;;;;;6.97;2.97;;;15.20;89.30;;;;;;5005832;28;20491;-52
2023/07/31 05:38:59;;;;;;;8.80;3.20;;;15.30;89.00;;;;;;5002581;28;20630;-53
2023/07/31 05:41:26;;;;;;;8.67;3.30;;;15.20;89.10;;;;;;5009431;28;20502;-52
2023/07/31 05:43:54;;;;;;;11.93;3.00;;;15.20;89.10;;;;;;5007255;28;20546;-52
2023/07/31 05:46:20;;;;;;;3.73;2.43;;;15.20;89.40;;;;;;5011750;28;20468;-52
2023/07/31 05:48:47;;;;;;;3.33;2.60;;;15.20;89.40;;;;;;5005574;28;20502;-53
2023/07/31 05:51:13;;;;;;;3.20;2.60;;;15.30;89.30;;;;;;5006693;28;20555;-52
2023/07/31 05:53:40;;;;;;;5.20;2.70;;;15.20;89.30;;;;;;5007717;28;21012;-51
2023/07/31 05:56:07;;;;;;;6.77;3.20;;;15.20;89.30;;;;;;5005245;28;20460;-53
2023/07/31 05:58:34;;;;;;;5.20;3.47;;;15.30;88.90;;;;;;5007557;28;20479;-52
2023/07/31 06:01:01;;;;;;;3.13;2.47;;;15.40;88.60;;;;;;5001387;28;21000;-53
2023/07/31 06:03:28;;;;;;;5.53;3.17;;;15.30;88.40;;;;;;5008926;28;20555;-51
2023/07/31 06:05:55;;;;;;;8.53;2.93;;;15.40;88.10;;;;;;5010552;28;21058;-52
2023/07/31 06:08:21;;;;;;;3.80;2.83;;;15.40;88.00;;;;;;5004512;28;20487;-51
2023/07/31 06:10:48;;;;;;;8.33;3.07;;;15.40;87.80;;;;;;5003281;28;21008;-52
2023/07/31 06:13:14;;;;;;;9.03;2.97;;;15.40;87.50;;;;;;5009791;28;21025;-51
2023/07/31 06:15:41;;;;;;;3.60;2.17;;;15.40;87.80;;;;;;5005255;28;20538;-53
2023/07/31 06:18:08;;;;;;;13.27;2.93;;;15.40;87.60;;;;;;5004677;28;20511;-52
2023/07/31 06:20:35;;;;;;;10.33;3.10;;;15.40;87.30;;;;;;5001367;28;20542;-51
2023/07/31 06:23:02;;;;;;;10.43;3.07;;;15.50;87.30;;;;;;5013091;28;20488;-51
2023/07/31 06:25:28;;;;;;;5.83;2.77;;;15.50;87.10;;;;;;5000996;28;20481;-52
2023/07/31 06:27:55;;;;;;;9.63;3.30;;;15.60;86.70;;;;;;5000621;28;20582;-51
2023/07/31 06:30:21;;;;;;;6.63;3.50;;;15.60;86.20;;;;;;5002795;28;21098;-51
2023/07/31 06:32:48;;;;;;;11.73;2.90;;;15.70;85.70;;;;;;5008518;28;20495;-53
2023/07/31 06:35:16;;;;;;;9.00;3.23;;;15.70;86.70;;;;;;5008415;28;20495;-53
2023/07/31 06:37:44;;;;;;;5.60;2.60;;;15.70;86.30;;;;;;5007806;28;20558;-52
2023/07/31 06:40:11;;;;;;;3.57;2.47;;;15.70;86.60;;;;;;5008888;28;20459;-53
2023/07/31 06:42:38;;;;;;;8.20;3.83;;;15.70;87.10;;;;;;5006568;28;20461;-51
2023/07/31 06:45:05;;;;;;;7.63;3.37;;;15.80;86.80;;;;;;5009093;28;20523;-53
2023/07/31 06:47:32;;;;;;;5.30;2.67;;;15.80;87.20;;;;;;5009303;28;20574;-54
2023/07/31 06:49:58;;;;;;;9.40;3.07;;;15.80;88.40;;;;;;5005959;28;20460;-52
2023/07/31 06:52:26;;;;;;;5.63;2.70;;;15.80;88.30;;;;;;4999739;28;20542;-53
2023/07/31 06:55:02;;;;;;;5.07;2.47;;;15.80;89.60;;;;;;4995049;28;20551;-52
2023/07/31 06:57:29;;;;;;;7.23;3.30;;;15.80;87.50;;;;;;4997172;28;20487;-52
2023/07/31 06:59:56;;;;;;;4.83;2.93;;;15.80;88.50;;;;;;4991160;28;20460;-54
2023/07/31 07:02:22;;;;;;;5.30;2.80;;;15.80;90.20;;;;;;5006630;28;20567;-54
2023/07/31 07:04:50;;;;;;;6.90;3.00;;;15.80;89.20;;;;;;4998740;28;20572;-53
2023/07/31 07:07:17;;;;;;;7.93;2.83;;;15.80;88.80;;;;;;5002116;28;21114;-51
2023/07/31 07:09:44;;;;;;;12.17;2.67;;;15.90;86.40;;;;;;5005079;28;20495;-53
2023/07/31 07:12:11;;;;;;;4.33;2.73;;;15.90;88.50;;;;;;4999228;28;20558;-52
2023/07/31 07:14:37;;;;;;;22.57;2.80;;;16.00;87.60;;;;;;5002212;28;20488;-53
2023/07/31 07:17:04;;;;;;;7.13;2.23;;;16.00;89.70;;;;;;5000911;28;20578;-52
2023/07/31 07:19:31;;;;;;;4.33;2.37;;;15.90;89.50;;;;;;5003964;28;20536;-52
2023/07/31 07:21:59;;;;;;;7.43;2.73;;;16.00;89.40;;;;;;5003548;28;20546;-52
2023/07/31 07:24:26;;;;;;;4.33;2.70;;;16.00;89.60;;;;;;5001208;28;20921;-52
2023/07/31 07:26:54;;;;;;;9.00;2.77;;;16.00;89.00;;;;;;5003271;28;20507;-52
2023/07/31 07:29:20;;;;;;;7.80;2.80;;;16.10;89.00;;;;;;5001445;28;20616;-52
2023/07/31 07:31:47;;;;;;;8.80;2.70;;;16.00;91.10;;;;;;5005606;28;20550;-52
2023/07/31 07:34:13;;;;;;;10.13;2.63;;;16.00;90.70;;;;;;5009509;28;20660;-52
2023/07/31 07:36:40;;;;;;;8.13;3.70;;;16.10;89.30;;;;;;5004434;28;20498;-53
2023/07/31 07:39:06;;;;;;;6.90;2.20;;;16.20;88.60;;;;;;5006314;28;20599;-53
2023/07/31 07:41:33;;;;;;;3.70;2.17;;;16.20;89.20;;;;;;5011119;28;20498;-52
2023/07/31 07:44:01;;;;;;;5.60;2.70;;;16.20;90.30;;;;;;5008186;28;20502;-52
2023/07/31 07:46:27;;;;;;;3.80;1.97;;;16.20;89.40;;;;;;4998485;28;20965;-53
2023/07/31 07:48:54;;;;;;;6.23;2.50;;;16.20;90.10;;;;;;4999915;28;20615;-54
2023/07/31 07:51:20;;;;;;;2.53;2.00;;;16.20;92.70;;;;;;5007273;28;20460;-52
2023/07/31 07:53:47;;;;;;;5.23;2.30;;;16.20;90.90;;;;;;5004457;28;20543;-53
2023/07/31 07:56:13;;;;;;;3.77;2.37;;;16.30;91.70;;;;;;5014573;28;20479;-51
2023/07/31 07:58:40;;;;;;;3.87;2.87;;;16.30;91.80;;;;;;5003641;28;20557;-52
2023/07/31 08:01:08;;;;;;;7.23;2.53;;;16.30;90.80;;;;;;5001398;28;20496;-52
2023/07/31 08:03:34;;;;;;;8.23;2.57;;;16.30;89.40;;;;;;4997618;28;20534;-52
2023/07/31 08:06:01;;;;;;;5.43;2.50;;;16.20;91.20;;;;;;5008103;28;20598;-53
2023/07/31 08:08:28;;;;;;;5.53;2.27;;;16.20;92.10;;;;;;4997245;28;21044;-53
2023/07/31 08:10:55;;;;;;;3.07;1.90;;;16.10;92.20;;;;;;5008201;28;20464;-53
2023/07/31 08:13:22;;;;;;;4.37;2.77;;;16.10;91.00;;;;;;5004179;28;20824;-52
2023/07/31 08:15:48;;;;;;;3.73;2.57;;;16.00;89.70;;;;;;4998968;28;20452;-53
2023/07/31 08:18:17;;;;;;;4.70;2.30;;;16.00;89.10;;;;;;5002861;28;20604;-53
2023/07/31 08:20:43;;;;;;;3.57;2.13;;;16.00;88.60;;;;;;5005777;28;20553;-52
2023/07/31 08:23:10;;;;;;;5.30;2.90;;;16.00;86.80;;;;;;5007174;28;20542;-51
2023/07/31 08:25:37;;;;;;;5.83;2.63;;;16.10;86.00;;;;;;5001124;28;20674;-54
2023/07/31 08:28:03;;;;;;;16.17;2.60;;;16.10;86.40;;;;;;5007557;28;20538;-53
2023/07/31 08:30:30;;;;;;;4.73;2.50;;;16.10;86.20;;;;;;5000677;28;20903;-52
2023/07/31 08:32:57;;;;;;;4.07;2.03;;;16.10;86.50;;;;;;5000154;28;20562;-52
2023/07/31 08:35:25;;;;;;;5.17;2.30;;;16.10;88.50;;;;;;5002309;28;20598;-52
2023/07/31 08:37:51;;;;;;;9.93;1.97;;;16.00;88.30;;;;;;5000687;28;20520;-53
2023/07/31 08:40:18;;;;;;;5.50;2.40;;;16.10;87.60;;;;;;5000893;28;20547;-53
2023/07/31 08:42:46;;;;;;;5.87;2.10;;;16.10;87.00;;;;;;5006895;28;20550;-53
2023/07/31 08:45:15;;;;;;;4.00;2.23;;;16.20;85.80;;;;;;5001211;28;20495;-52
2023/07/31 08:47:43;;;;;;;2.30;1.97;;;16.20;86.80;;;;;;5024563;22;20467;-53
2023/07/31 08:50:10;;;;;;;3.13;1.90;;;16.30;85.90;;;;;;5066046;28;20540;-52
2023/07/31 08:52:38;;;;;;;2.40;2.20;;;16.30;85.30;;;;;;5059432;28;20518;-53
2023/07/31 08:55:06;;;;;;;1.80;1.63;;;16.30;87.20;;;;;;5059222;28;21116;-52
2023/07/31 08:57:33;;;;;;;2.47;2.20;;;16.40;85.30;;;;;;5059382;28;20539;-51
2023/07/31 09:00:00;;;;;;;4.13;2.40;;;16.30;86.70;;;;;;5045367;28;20481;-53
2023/07/31 09:02:35;;;;;;;5.57;3.07;;;16.30;87.00;;;;;;5042850;28;20994;-53
2023/07/31 09:05:02;;;;;;;2.00;1.60;;;16.30;86.20;;;;;;5047061;28;20465;-54
2023/07/31 09:07:29;;;;;;;4.80;2.07;;;16.30;86.20;;;;;;5042921;28;20899;-54
2023/07/31 09:09:58;;;;;;;2.17;1.90;;;16.30;85.80;;;;;;5042476;28;20561;-53
2023/07/31 09:12:26;;;;;;;5.00;2.37;;;16.30;85.30;;;;;;5045792;28;20496;-52
2023/07/31 09:14:53;;;;;;;2.30;1.93;;;16.40;85.80;;;;;;5047457;28;20462;-53
2023/07/31 09:17:30;;;;;;;5.37;2.83;;;16.50;85.10;;;;;;5052774;28;20550;-53
2023/07/31 09:19:56;;;;;;;3.23;1.80;;;16.60;83.80;;;;;;5044372;28;20454;-53
2023/07/31 09:22:32;;;;;;;3.53;2.10;;;16.70;84.80;;;;;;5048784;28;20826;-52
2023/07/31 09:25:15;;;;;;;3.20;2.20;;;16.60;93.70;;;;;;5046396;28;20549;-53
2023/07/31 09:27:48;;;;;;;5.47;1.80;;;16.70;92.50;;;;;;5048556;28;20477;-55
2023/07/31 09:30:15;;;;;;;2.53;2.00;;;16.60;96.80;;;;;;5048369;28;20571;-54
2023/07/31 09:32:42;;;;;;;3.17;2.07;;;16.60;94.80;;;;;;5050620;28;20545;-54
2023/07/31 09:35:19;;;;;;;2.90;2.10;;;16.60;93.20;;;;;;5050468;28;20558;-54
2023/07/31 09:37:48;;;;;;;2.07;1.40;;;16.50;90.90;;;;;;5051338;28;20480;-54
2023/07/31 09:40:26;;;;;;;2.47;1.80;;;16.50;90.90;;;;;;5049890;28;20544;-54
2023/07/31 09:42:53;;;;;;;6.83;1.43;;;16.30;88.90;;;;;;5047910;28;20453;-54
2023/07/31 09:45:20;;;;;;;3.23;1.63;;;16.30;88.10;;;;;;5048925;28;20580;-54
2023/07/31 09:47:48;;;;;;;2.13;1.17;;;16.20;88.90;;;;;;5052764;28;20482;-54
2023/07/31 09:50:15;;;;;;;1.73;1.20;;;16.20;89.70;;;;;;5048072;28;20461;-54
2023/07/31 09:52:42;;;;;;;1.63;1.17;;;16.10;88.50;;;;;;5049095;28;20951;-52
2023/07/31 09:55:09;;;;;;;2.37;1.23;;;16.10;87.60;;;;;;5050007;28;20462;-54
2023/07/31 09:57:40;;;;;;;3.17;1.37;;;16.20;86.60;;;;;;5051819;28;20473;-54
2023/07/31 10:00:09;;;;;;;1.30;1.17;;;16.30;85.20;;;;;;5048706;28;20549;-54
2023/07/31 10:02:37;;;;;;;2.83;1.70;;;16.30;84.70;;;;;;5049450;28;20489;-53
2023/07/31 10:05:05;;;;;;;21.23;1.43;;;16.30;84.10;;;;;;5046560;28;20473;-53
2023/07/31 10:07:34;;;;;;;1.73;1.20;;;16.30;83.70;;;;;;5048778;28;20545;-54
2023/07/31 10:10:01;;;;;;;1.60;1.20;;;16.30;83.70;;;;;;5051163;28;20489;-53
2023/07/31 10:12:29;;;;;;;5.43;1.47;;;16.30;84.00;;;;;;5050108;28;20948;-55
2023/07/31 10:14:57;;;;;;;3.27;1.90;;;16.30;84.00;;;;;;5050075;28;20886;-54
2023/07/31 10:17:25;;;;;;;2.30;1.93;;;16.20;85.00;;;;;;5051948;28;20462;-54
2023/07/31 10:19:53;;;;;;;8.73;1.83;;;16.20;84.80;;;;;;5050433;28;20549;-54
2023/07/31 10:22:21;;;;;;;1.87;1.63;;;16.20;85.00;;;;;;5050192;28;20497;-55
2023/07/31 10:24:50;;;;;;;1.73;1.60;;;16.20;84.90;;;;;;5047818;28;20554;-53
2023/07/31 10:27:17;;;;;;;3.37;1.80;;;16.30;84.10;;;;;;5043304;28;20482;-53
2023/07/31 10:29:47;;;;;;;2.20;1.67;;;16.30;83.50;;;;;;5052725;28;21030;-54
2023/07/31 10:32:17;;;;;;;4.37;2.40;;;16.40;83.50;;;;;;5050832;28;20458;-54
2023/07/31 10:34:44;;;;;;;6.20;1.80;;;16.40;83.40;;;;;;5041168;28;20542;-54
2023/07/31 10:37:25;;;;;;;3.47;2.30;;;16.40;81.20;;;;;;5049346;28;20641;-53
2023/07/31 10:39:59;;;;;;;2.53;2.00;;;16.40;83.40;;;;;;5051658;28;20458;-52
2023/07/31 10:42:34;;;;;;;3.47;2.10;;;16.40;83.30;;;;;;5049175;28;20489;-52
2023/07/31 10:45:03;;;;;;;2.13;1.93;;;16.50;83.20;;;;;;5046445;28;20449;-54
2023/07/31 10:47:31;;;;;;;3.60;2.50;;;16.50;83.00;;;;;;5049308;28;20558;-55
2023/07/31 10:50:14;;;;;;;6.13;3.00;;;16.50;83.10;;;;;;5049309;28;20916;-52
2023/07/31 10:52:43;;;;;;;4.50;2.73;;;16.50;83.50;;;;;;5049010;28;20528;-53
2023/07/31 10:55:23;;;;;;;6.97;3.40;;;16.60;83.00;;;;;;5047476;28;20541;-55
2023/07/31 10:57:49;;;;;;;3.70;2.93;;;16.70;81.80;;;;;;5046975;28;20588;-53
2023/07/31 11:00:20;;;;;;;5.07;2.97;;;16.70;81.00;;;;;;5047883;28;20504;-54
2023/07/31 11:03:05;;;;;;;6.53;3.20;;;16.70;79.70;;;;;;5045660;28;20462;-54
2023/07/31 11:06:00;;;;;;;6.10;3.70;;;16.80;79.90;;;;;;5044370;28;20461;-54
2023/07/31 11:08:29;;;;;;;6.60;3.47;;;17.10;77.40;;;;;;5045269;28;20473;-54
2023/07/31 11:11:07;;;;;;;7.30;3.50;;;17.20;78.10;;;;;;5049505;28;20465;-53
2023/07/31 11:13:40;;;;;;;6.47;3.70;;;17.20;81.40;;;;;;5044523;28;20966;-54
2023/07/31 11:16:06;;;;;;;4.43;3.80;;;17.20;86.20;;;;;;5050121;28;20557;-53
2023/07/31 11:18:34;;;;;;;4.60;3.60;;;17.10;91.20;;;;;;5051188;28;20509;-53
2023/07/31 11:21:01;;;;;;;6.87;3.87;;;17.10;87.10;;;;;;5050579;28;20729;-52
2023/07/31 11:23:27;;;;;;;9.97;4.27;;;17.10;85.60;;;;;;5050120;28;20544;-54
2023/07/31 11:26:00;;;;;;;6.53;3.73;;;17.10;85.00;;;;;;5045206;28;20575;-52
2023/07/31 11:28:26;;;;;;;6.33;3.77;;;17.30;83.00;;;;;;5044617;28;20458;-52
2023/07/31 11:30:53;;;;;;;7.53;3.90;;;17.50;81.10;;;;;;5043821;28;20867;-52
2023/07/31 11:33:19;;;;;;;8.67;4.30;;;17.70;79.20;;;;;;5046686;28;20827;-53
2023/07/31 11:35:49;;;;;;;8.40;4.10;;;17.80;79.70;;;;;;5048873;28;21009;-53
2023/07/31 11:38:23;;;;;;;16.73;4.23;;;17.80;81.60;;;;;;5049310;28;20477;-53
2023/07/31 11:40:49;;;;;;;10.63;4.43;;;17.80;83.70;;;;;;5047367;28;20461;-53
2023/07/31 11:43:17;;;;;;;8.13;4.27;;;17.90;85.90;;;;;;5048281;28;20553;-53
2023/07/31 11:45:47;;;;;;;17.03;4.67;;;18.20;82.30;;;;;;5046969;28;20454;-52
2023/07/31 11:48:20;;;;;;;10.23;4.13;;;18.40;94.80;;;;;;5041630;28;21079;-53
2023/07/31 11:50:50;;;;;;;11.23;4.53;;;18.30;99.90;;;;;;5047337;28;20512;-53
2023/07/31 11:53:20;;;;;;;5.20;3.53;;;18.20;99.90;;;;;;5048091;28;20498;-54
2023/07/31 11:55:47;;;;;;;9.07;4.47;;;18.20;99.90;;;;;;5048280;28;20462;-54
2023/07/31 11:58:16;;;;;;;7.83;4.30;;;18.20;99.90;;;;;;5049634;28;20489;-53
2023/07/31 12:00:43;;;;;;;6.50;3.97;;;18.20;99.90;;;;;;5048757;28;20963;-53
2023/07/31 12:03:10;;;;;;;6.90;4.57;;;18.20;99.90;;;;;;5046007;28;20537;-53
2023/07/31 12:05:38;;;;;;;6.27;4.40;;;18.20;99.90;;;;;;5048208;28;20525;-54
2023/07/31 12:08:12;;;;;;;7.93;4.47;;;18.10;99.90;;;;;;5052581;28;20493;-53
2023/07/31 12:10:40;;;;;;;8.30;4.40;;;18.20;99.90;;;;;;5049381;28;20460;-52
2023/07/31 12:13:10;;;;;;;10.23;4.20;;;18.20;99.90;;;;;;5047314;28;20464;-53
2023/07/31 12:15:39;;;;;;;8.13;3.60;;;18.20;99.90;;;;;;5044768;28;20458;-53
2023/07/31 12:18:07;;;;;;;5.27;4.00;;;18.10;99.90;;;;;;5044314;28;20539;-53
2023/07/31 12:20:35;;;;;;;6.77;4.27;;;18.10;99.90;;;;;;5044022;28;20557;-53
2023/07/31 12:23:01;;;;;;;6.30;3.80;;;18.10;99.90;;;;;;5045249;28;20461;-52
2023/07/31 12:25:36;;;;;;;4.73;3.90;;;18.10;99.90;;;;;;5042895;28;20466;-52
2023/07/31 12:28:11;;;;;;;8.60;3.63;;;18.20;99.90;;;;;;5048692;28;20485;-53
2023/07/31 12:30:37;;;;;;;7.77;3.80;;;18.30;99.90;;;;;;5045985;28;20465;-53
2023/07/31 12:33:05;;;;;;;6.67;4.63;;;18.40;99.90;;;;;;5045521;28;21182;-54
2023/07/31 12:35:36;;;;;;;8.93;3.97;;;18.50;99.90;;;;;;5047747;28;20544;-53
2023/07/31 12:38:03;;;;;;;6.43;4.23;;;18.40;99.90;;;;;;5047717;28;20533;-53
2023/07/31 12:40:30;;;;;;;7.53;3.43;;;18.40;99.90;;;;;;5049432;28;20458;-53
2023/07/31 12:42:58;;;;;;;7.53;4.10;;;18.30;99.90;;;;;;5041677;28;20494;-53
2023/07/31 12:45:24;;;;;;;6.70;3.90;;;18.10;99.90;;;;;;5041298;28;20545;-53
2023/07/31 12:47:51;;;;;;;9.60;4.60;;;17.90;99.90;;;;;;5042956;28;20998;-53
2023/07/31 12:50:17;;;;;;;6.30;4.27;;;17.70;99.90;;;;;;5047178;28;20971;-52